ADDS METAR Data INFO
IDs: Format: Raw Decoded Include TAF

Data at: 1413 UTC 19 Nov 2017

METAR for:KUNI (Albany/Ohio Univ Arp, OH, US)
Text:KUNI 191355Z AUTO 28006KT 7SM -SN SCT020 BKN028 OVC035 03/03 A2991 RMK AO2 T00280025
Temperature: 2.8°C ( 37°F)
Dewpoint: 2.5°C ( 36°F) [RH = 98%]
Pressure (altimeter):29.91 inches Hg (1013.0 mb)
Winds:from the W (280 degrees) at 7 MPH (6 knots; 3.1 m/s)
Visibility: 7 sm ( 11 km)
Ceiling:2800 feet AGL
Clouds: scattered clouds at 2000 feet AGL, broken clouds at 2800 feet AGL, overcast cloud deck at 3500 feet AGL
Weather:-SN (light snow)
QC Flag:automated observation with no human augmentation